Time;durP1;ratioP1;P1;durP2;ratioP2;P2;SDS_P1;SDS_P2;PMS_P1;PMS_P2;Temp;Humidity;BMP_temperature;BMP_pressure;BME280_temperature;BME280_humidity;BME280_pressure;Samples;Min_cycle;Max_cycle;Signal;HPM_P1;HPM_P2
2022/04/04 00:01:33;;;;;;;20.40;11.57;;;3.30;39.10;;;;;;5114578;28;20663;-67
2022/04/04 00:03:59;;;;;;;18.57;11.10;;;3.20;39.40;;;;;;5115160;28;20856;-66
2022/04/04 00:06:28;;;;;;;20.23;11.40;;;3.40;40.20;;;;;;5115026;28;20198;-66
2022/04/04 00:08:53;;;;;;;30.00;11.98;;;3.10;39.00;;;;;;5114430;28;20181;-69
2022/04/04 00:11:19;;;;;;;20.27;11.97;;;3.20;38.10;;;;;;5114493;28;20178;-66
2022/04/04 00:13:44;;;;;;;22.97;12.30;;;3.70;38.80;;;;;;5114414;28;20591;-66
2022/04/04 00:16:10;;;;;;;21.13;12.37;;;3.60;36.50;;;;;;5114893;28;20202;-67
2022/04/04 00:18:36;;;;;;;21.80;12.07;;;3.60;36.90;;;;;;5114758;28;20181;-68
2022/04/04 00:21:04;;;;;;;21.63;12.07;;;3.90;37.80;;;;;;5114981;28;20174;-66
2022/04/04 00:23:29;;;;;;;18.42;11.25;;;3.60;36.40;;;;;;5114915;28;20198;-67
2022/04/04 00:25:55;;;;;;;21.20;12.83;;;3.50;37.10;;;;;;5114693;28;20686;-69
2022/04/04 00:28:21;;;;;;;22.17;12.43;;;3.10;37.90;;;;;;5114780;28;20188;-69
2022/04/04 00:30:46;;;;;;;22.00;12.60;;;2.90;39.50;;;;;;5114443;28;20261;-70
2022/04/04 00:33:12;;;;;;;24.03;12.40;;;2.90;39.20;;;;;;5114720;28;20253;-70
2022/04/04 00:35:38;;;;;;;39.27;12.70;;;3.00;39.60;;;;;;5114649;28;20582;-70
2022/04/04 00:38:08;;;;;;;19.90;12.40;;;3.00;39.00;;;;;;5115017;28;20407;-70
2022/04/04 00:40:34;;;;;;;22.60;12.45;;;2.80;40.20;;;;;;5114081;28;20182;-70
2022/04/04 00:43:00;;;;;;;20.83;12.60;;;3.20;38.20;;;;;;5113795;28;20212;-70
2022/04/04 00:45:25;;;;;;;22.53;12.97;;;3.30;38.50;;;;;;5114443;28;20244;-69
2022/04/04 00:47:51;;;;;;;26.87;13.00;;;3.30;38.60;;;;;;5114522;28;20170;-70
2022/04/04 00:50:17;;;;;;;25.03;12.90;;;3.10;38.10;;;;;;5113920;28;20181;-70
2022/04/04 00:52:43;;;;;;;24.02;14.07;;;2.70;40.30;;;;;;5113864;28;20438;-70
2022/04/04 00:55:09;;;;;;;23.83;12.50;;;4.00;41.80;;;;;;5114071;28;20186;-70
2022/04/04 00:57:37;;;;;;;20.60;11.95;;;2.70;40.50;;;;;;5114129;28;20250;-70
2022/04/04 01:00:05;;;;;;;22.45;12.63;;;2.70;39.70;;;;;;5113581;28;20598;-70
2022/04/04 01:02:31;;;;;;;24.55;12.80;;;2.90;38.20;;;;;;5113785;28;20205;-70
2022/04/04 01:04:57;;;;;;;22.37;12.70;;;3.00;35.90;;;;;;5114128;28;20171;-70
2022/04/04 01:07:22;;;;;;;20.27;12.27;;;2.80;38.90;;;;;;5113673;28;20246;-70
2022/04/04 01:09:49;;;;;;;20.13;12.20;;;2.60;39.30;;;;;;5113795;28;20682;-69
2022/04/04 01:12:15;;;;;;;21.45;12.15;;;2.70;39.30;;;;;;5112953;28;20182;-70
2022/04/04 01:14:48;;;;;;;20.60;11.47;;;3.10;37.60;;;;;;5113593;28;20193;-70
2022/04/04 01:17:19;;;;;;;18.85;10.98;;;3.40;35.40;;;;;;5101981;28;20275;-70
2022/04/04 01:19:45;;;;;;;20.42;11.73;;;3.30;35.10;;;;;;5114006;28;20162;-70
2022/04/04 01:22:13;;;;;;;26.27;12.55;;;3.10;35.50;;;;;;5112410;28;20201;-70
2022/04/04 01:24:39;;;;;;;23.05;12.05;;;3.10;36.20;;;;;;5113632;28;20209;-70
2022/04/04 01:27:07;;;;;;;20.88;11.90;;;2.90;37.60;;;;;;5113499;28;20186;-70
2022/04/04 01:29:34;;;;;;;20.98;11.90;;;2.70;39.80;;;;;;5113777;28;20174;-70
2022/04/04 01:32:00;;;;;;;24.05;12.20;;;2.50;38.60;;;;;;5112680;28;20186;-70
2022/04/04 01:34:26;;;;;;;19.30;11.75;;;2.60;38.20;;;;;;5113523;28;20174;-70
2022/04/04 01:36:52;;;;;;;22.83;13.35;;;2.70;37.60;;;;;;5113028;28;20193;-70
2022/04/04 01:39:18;;;;;;;20.70;12.13;;;2.50;39.10;;;;;;5113287;28;20177;-70
2022/04/04 01:41:45;;;;;;;18.33;12.20;;;2.40;39.10;;;;;;5110335;28;20182;-70
2022/04/04 01:44:11;;;;;;;21.98;12.50;;;2.40;38.60;;;;;;5101262;28;20194;-70
2022/04/04 01:46:37;;;;;;;21.98;11.98;;;2.30;38.40;;;;;;5110073;28;20611;-70
2022/04/04 01:49:04;;;;;;;21.27;11.90;;;2.30;39.40;;;;;;5094762;28;20193;-70
2022/04/04 01:51:32;;;;;;;22.50;13.48;;;2.10;40.00;;;;;;5112935;28;20455;-70
2022/04/04 01:53:58;;;;;;;21.65;12.00;;;2.10;40.50;;;;;;5092310;28;20196;-70
2022/04/04 01:56:24;;;;;;;21.77;12.73;;;1.90;41.00;;;;;;5096601;28;20289;-70
2022/04/04 01:58:50;;;;;;;19.88;10.82;;;2.10;39.80;;;;;;5108348;28;20174;-70
2022/04/04 02:01:19;;;;;;;21.55;11.93;;;2.40;38.50;;;;;;5112198;28;20173;-70
2022/04/04 02:03:51;;;;;;;21.20;12.40;;;2.20;39.40;;;;;;5112720;28;20222;-70
2022/04/04 02:06:21;;;;;;;23.38;12.85;;;2.10;40.10;;;;;;5112170;28;20270;-70
2022/04/04 02:08:47;;;;;;;23.52;12.50;;;2.00;40.90;;;;;;5112401;28;20248;-70
2022/04/04 02:11:15;;;;;;;22.13;12.85;;;1.90;41.10;;;;;;5112543;28;20700;-70
2022/04/04 02:13:41;;;;;;;24.30;12.80;;;1.90;40.80;;;;;;5112356;28;20224;-70
2022/04/04 02:16:07;;;;;;;24.50;13.50;;;2.30;37.70;;;;;;5112402;28;20206;-70
2022/04/04 02:18:37;;;;;;;24.60;13.10;;;2.50;36.20;;;;;;5112313;28;20211;-70
2022/04/04 02:21:05;;;;;;;26.05;13.80;;;2.50;37.10;;;;;;5092764;28;20188;-70
2022/04/04 02:23:31;;;;;;;26.90;13.68;;;2.30;37.50;;;;;;5111912;28;20955;-70
2022/04/04 02:25:57;;;;;;;22.37;13.20;;;2.50;39.30;;;;;;5112237;28;20225;-70
2022/04/04 02:28:24;;;;;;;24.17;13.93;;;1.90;39.70;;;;;;5112415;28;20885;-70
2022/04/04 02:30:50;;;;;;;26.48;14.25;;;1.90;39.80;;;;;;5111767;28;20170;-69
2022/04/04 02:33:17;;;;;;;22.10;13.43;;;1.80;40.20;;;;;;5111845;28;20273;-68
2022/04/04 02:35:43;;;;;;;27.83;13.80;;;1.80;40.60;;;;;;5112221;28;20213;-70
2022/04/04 02:38:09;;;;;;;26.38;13.35;;;2.40;39.40;;;;;;5111826;28;20178;-70
2022/04/04 02:40:36;;;;;;;23.00;12.90;;;1.80;39.30;;;;;;5111860;28;20190;-70
2022/04/04 02:43:02;;;;;;;25.35;13.82;;;1.80;39.80;;;;;;5111621;28;20689;-70
2022/04/04 02:45:29;;;;;;;25.13;14.80;;;2.20;39.90;;;;;;5111508;28;20690;-70
2022/04/04 02:47:55;;;;;;;24.08;13.77;;;1.90;38.70;;;;;;5112100;28;20209;-70
2022/04/04 02:50:21;;;;;;;22.77;13.98;;;1.90;38.80;;;;;;5112109;28;20588;-70
2022/04/04 02:52:47;;;;;;;25.83;13.80;;;1.80;38.30;;;;;;5111523;28;20170;-70
2022/04/04 02:57:57;;;;;;;20.55;12.93;;;1.80;38.30;;;;;;5111899;28;20238;-70
2022/04/04 03:00:26;;;;;;;26.67;12.70;;;1.50;39.10;;;;;;5111923;28;20571;-69
2022/04/04 03:02:57;;;;;;;26.25;13.68;;;1.50;39.70;;;;;;5111665;28;20205;-70
2022/04/04 03:05:23;;;;;;;22.77;12.45;;;2.40;38.60;;;;;;5111585;28;20252;-70
2022/04/04 03:07:50;;;;;;;23.35;13.00;;;2.30;37.30;;;;;;5112018;28;20655;-68
2022/04/04 03:10:16;;;;;;;23.83;13.90;;;2.40;36.80;;;;;;5111863;28;20261;-70
2022/04/04 03:12:47;;;;;;;22.77;13.17;;;2.10;37.50;;;;;;5111632;28;20277;-70
2022/04/04 03:15:18;;;;;;;22.17;12.18;;;2.00;37.70;;;;;;5111202;28;20477;-70
2022/04/04 03:17:45;;;;;;;21.17;12.65;;;1.80;38.10;;;;;;5093475;28;20194;-68
2022/04/04 03:20:12;;;;;;;23.27;12.93;;;1.70;39.60;;;;;;5111919;28;20299;-70
2022/04/04 03:22:40;;;;;;;22.60;12.43;;;1.60;39.20;;;;;;5111447;28;20213;-69
2022/04/04 03:25:08;;;;;;;23.23;12.77;;;1.50;39.00;;;;;;5111302;28;20173;-68
2022/04/04 03:27:34;;;;;;;21.80;12.80;;;1.50;39.20;;;;;;5111516;28;20285;-69
2022/04/04 03:30:00;;;;;;;21.13;12.32;;;1.50;39.50;;;;;;5111648;28;20166;-70
2022/04/04 03:32:26;;;;;;;20.17;12.47;;;1.40;39.10;;;;;;5114483;28;20319;-70
2022/04/04 03:34:51;;;;;;;23.07;12.80;;;1.40;39.00;;;;;;5115113;28;20427;-70
2022/04/04 03:37:17;;;;;;;20.57;11.87;;;1.40;39.70;;;;;;5115865;28;20200;-70
2022/04/04 03:39:43;;;;;;;22.60;12.90;;;1.70;38.10;;;;;;5115562;28;20223;-70
2022/04/04 03:42:09;;;;;;;22.10;12.20;;;2.10;36.50;;;;;;5115470;28;20194;-70
2022/04/04 03:44:34;;;;;;;21.27;12.40;;;1.80;37.70;;;;;;5115478;28;20174;-70
2022/04/04 03:47:00;;;;;;;24.07;13.27;;;1.50;39.20;;;;;;5115128;28;20205;-69
2022/04/04 03:49:25;;;;;;;21.77;12.50;;;1.40;39.90;;;;;;5115479;28;20670;-70
2022/04/04 03:51:51;;;;;;;24.87;13.27;;;1.20;40.40;;;;;;5113717;28;20204;-70
2022/04/04 03:54:18;;;;;;;28.33;13.33;;;1.30;40.00;;;;;;5115401;28;20174;-68
2022/04/04 03:56:45;;;;;;;22.20;13.07;;;1.40;40.50;;;;;;5114978;28;20190;-68
2022/04/04 03:59:11;;;;;;;22.95;12.63;;;1.60;38.90;;;;;;5115624;28;20205;-68
2022/04/04 04:01:37;;;;;;;20.57;12.80;;;1.90;37.30;;;;;;5103022;28;20210;-68
2022/04/04 04:04:03;;;;;;;22.20;12.97;;;2.00;36.70;;;;;;5111916;28;20459;-68
2022/04/04 04:06:31;;;;;;;24.60;12.20;;;2.10;36.30;;;;;;5115166;28;20205;-68
2022/04/04 04:08:58;;;;;;;23.00;13.38;;;2.50;35.40;;;;;;5115036;28;20392;-68
2022/04/04 04:11:24;;;;;;;23.20;12.55;;;2.10;35.00;;;;;;5114622;28;20179;-69
2022/04/04 04:13:51;;;;;;;22.40;12.45;;;1.90;37.20;;;;;;5114686;28;20181;-68
2022/04/04 04:16:16;;;;;;;25.02;12.15;;;2.20;37.10;;;;;;5096200;28;20276;-68
2022/04/04 04:18:42;;;;;;;26.97;13.60;;;1.70;37.70;;;;;;5115092;28;20194;-68
2022/04/04 04:21:10;;;;;;;20.67;12.50;;;1.80;36.90;;;;;;5115150;28;20561;-68
2022/04/04 04:23:37;;;;;;;24.60;12.70;;;2.10;36.30;;;;;;5114073;28;20201;-68
2022/04/04 04:26:08;;;;;;;29.45;11.90;;;1.90;36.10;;;;;;5115005;28;20198;-67
2022/04/04 04:28:34;;;;;;;18.13;10.60;;;1.90;35.40;;;;;;5096635;28;20548;-68
2022/04/04 04:31:00;;;;;;;20.83;12.00;;;2.00;35.10;;;;;;5114544;28;20174;-68
2022/04/04 04:33:27;;;;;;;26.88;12.90;;;1.90;35.60;;;;;;5114431;28;20205;-69
2022/04/04 04:35:53;;;;;;;20.35;11.88;;;2.20;35.00;;;;;;5114527;28;20198;-69
2022/04/04 04:38:18;;;;;;;24.55;12.63;;;2.00;34.90;;;;;;5114480;28;20540;-69
2022/04/04 04:40:44;;;;;;;23.87;12.83;;;2.00;35.10;;;;;;5114082;28;20193;-69
2022/04/04 04:43:10;;;;;;;19.60;11.83;;;2.00;34.60;;;;;;5113293;28;20208;-68
2022/04/04 04:45:35;;;;;;;20.23;11.30;;;1.90;34.50;;;;;;5113634;28;20708;-69
2022/04/04 04:48:01;;;;;;;36.60;18.77;;;2.20;34.10;;;;;;5114245;28;20158;-72
2022/04/04 04:50:28;;;;;;;20.40;11.77;;;1.90;34.40;;;;;;5114368;28;20428;-69
2022/04/04 04:52:55;;;;;;;23.40;12.35;;;1.80;35.80;;;;;;5114190;28;20293;-69
2022/04/04 04:55:22;;;;;;;21.52;12.43;;;1.40;37.50;;;;;;5113941;28;20170;-68
2022/04/04 04:57:48;;;;;;;22.15;12.60;;;1.20;38.40;;;;;;5111034;28;20764;-72
2022/04/04 05:00:16;;;;;;;24.90;12.18;;;1.10;38.40;;;;;;5113977;28;20170;-68
2022/04/04 05:02:42;;;;;;;21.80;11.93;;;0.90;37.90;;;;;;5113660;28;20208;-67
2022/04/04 05:05:08;;;;;;;20.10;11.90;;;1.10;38.00;;;;;;5113932;28;20162;-68
2022/04/04 05:07:34;;;;;;;20.63;12.13;;;1.10;38.60;;;;;;5113239;28;20221;-69
2022/04/04 05:10:00;;;;;;;26.23;12.40;;;1.60;38.50;;;;;;5113783;28;20233;-69
2022/04/04 05:12:25;;;;;;;20.57;11.97;;;1.50;36.70;;;;;;5113684;28;20166;-69
2022/04/04 05:14:51;;;;;;;19.83;11.47;;;1.70;37.80;;;;;;5113796;28;20916;-69
2022/04/04 05:17:17;;;;;;;21.77;11.87;;;1.50;37.30;;;;;;5095254;28;20663;-69
2022/04/04 05:19:43;;;;;;;23.30;12.50;;;1.50;37.50;;;;;;5113519;28;20162;-68
2022/04/04 05:22:09;;;;;;;21.05;11.80;;;1.50;37.20;;;;;;5094901;28;20458;-69
2022/04/04 05:24:35;;;;;;;21.23;11.67;;;1.50;37.20;;;;;;5113540;28;20538;-69
2022/04/04 05:27:02;;;;;;;24.27;12.65;;;2.00;37.90;;;;;;5113533;28;20205;-69
2022/04/04 05:29:27;;;;;;;28.05;13.70;;;1.90;36.10;;;;;;5113037;28;20189;-69
2022/04/04 05:31:55;;;;;;;23.67;14.70;;;2.10;35.00;;;;;;5112593;28;20588;-69
2022/04/04 05:34:21;;;;;;;25.67;14.52;;;2.00;35.40;;;;;;5113308;28;20198;-69
2022/04/04 05:36:48;;;;;;;22.45;13.52;;;2.00;36.60;;;;;;5113345;28;20194;-69
2022/04/04 05:39:14;;;;;;;25.27;14.30;;;1.80;36.80;;;;;;5112675;28;20189;-69
2022/04/04 05:41:40;;;;;;;30.33;14.90;;;2.10;37.80;;;;;;5112986;28;20178;-76
2022/04/04 05:44:06;;;;;;;39.92;14.75;;;1.90;37.20;;;;;;5113308;28;20193;-76
2022/04/04 05:46:32;;;;;;;26.30;14.60;;;2.10;37.80;;;;;;5112947;28;20259;-76
2022/04/04 05:49:00;;;;;;;24.65;14.00;;;1.70;37.30;;;;;;5112704;28;20193;-76
2022/04/04 05:51:27;;;;;;;33.28;16.50;;;1.70;37.30;;;;;;5113206;28;20171;-76
2022/04/04 05:53:53;;;;;;;28.38;14.40;;;1.70;37.00;;;;;;5092193;28;20221;-73
2022/04/04 05:56:20;;;;;;;31.93;15.73;;;1.70;37.30;;;;;;5112211;28;20201;-72
2022/04/04 05:58:45;;;;;;;35.00;15.27;;;1.80;37.10;;;;;;5112729;28;20174;-71
2022/04/04 06:01:11;;;;;;;42.33;15.03;;;1.90;36.80;;;;;;5112753;28;20184;-71
2022/04/04 06:03:37;;;;;;;26.67;14.97;;;1.80;35.90;;;;;;5112898;28;20522;-71
2022/04/04 06:06:02;;;;;;;27.40;14.23;;;2.20;36.00;;;;;;5112665;28;20186;-71
2022/04/04 06:08:29;;;;;;;28.17;15.07;;;2.10;35.30;;;;;;5112280;28;20177;-71
2022/04/04 06:10:54;;;;;;;26.45;14.57;;;2.10;34.50;;;;;;5112422;28;20858;-71
2022/04/04 06:13:20;;;;;;;30.47;15.30;;;2.20;34.10;;;;;;5107271;28;20210;-71
2022/04/04 06:15:47;;;;;;;24.00;14.10;;;2.20;35.40;;;;;;5101129;28;20242;-71
2022/04/04 06:18:13;;;;;;;28.83;14.68;;;2.30;35.40;;;;;;5103911;28;20219;-72
2022/04/04 06:20:40;;;;;;;31.00;15.25;;;2.30;35.10;;;;;;5097642;28;20186;-71
2022/04/04 06:23:06;;;;;;;27.30;14.27;;;2.40;35.60;;;;;;5089241;28;20336;-71
2022/04/04 06:25:32;;;;;;;27.67;14.57;;;2.40;35.00;;;;;;5104576;28;20173;-71
2022/04/04 06:27:58;;;;;;;30.38;14.75;;;2.70;34.50;;;;;;5109317;28;20184;-71
2022/04/04 06:30:24;;;;;;;36.60;14.90;;;1.70;34.30;;;;;;5103470;28;20261;-71
2022/04/04 06:32:50;;;;;;;33.93;14.53;;;2.40;35.40;;;;;;5103371;28;20536;-71
2022/04/04 06:35:16;;;;;;;32.93;13.73;;;2.50;35.20;;;;;;5109625;28;20420;-71
2022/04/04 06:37:43;;;;;;;26.92;14.13;;;2.40;35.50;;;;;;5099931;28;20953;-71
2022/04/04 06:40:10;;;;;;;28.25;15.20;;;2.40;36.40;;;;;;5102132;28;20293;-73
2022/04/04 06:42:41;;;;;;;24.73;13.50;;;2.50;35.20;;;;;;5104751;28;20203;-73
2022/04/04 06:45:08;;;;;;;25.02;14.30;;;2.80;34.80;;;;;;5086188;28;20552;-71
2022/04/04 06:47:34;;;;;;;40.38;15.18;;;3.30;33.30;;;;;;5101733;28;20213;-72
2022/04/04 06:50:00;;;;;;;28.90;14.43;;;3.60;33.10;;;;;;5100908;28;20663;-73
2022/04/04 06:52:26;;;;;;;29.45;15.18;;;3.60;34.00;;;;;;5112132;28;20207;-73
2022/04/04 06:54:53;;;;;;;26.83;14.40;;;3.20;34.10;;;;;;5113152;28;20174;-73
2022/04/04 06:57:19;;;;;;;32.35;15.80;;;2.80;34.50;;;;;;5095808;28;20194;-72
2022/04/04 06:59:45;;;;;;;34.80;15.07;;;2.80;34.50;;;;;;5105502;28;20201;-71
2022/04/04 07:02:11;;;;;;;30.40;14.68;;;2.80;34.60;;;;;;5108829;28;20463;-73
2022/04/04 07:04:37;;;;;;;23.93;14.93;;;3.00;35.00;;;;;;5100697;28;20182;-71
2022/04/04 07:07:04;;;;;;;26.77;14.00;;;3.20;35.30;;;;;;5105378;28;20226;-73
2022/04/04 07:09:30;;;;;;;27.20;13.95;;;3.40;34.20;;;;;;5102118;28;20174;-70
2022/04/04 07:11:55;;;;;;;24.63;14.10;;;3.20;34.10;;;;;;5110949;28;20173;-70
2022/04/04 07:14:21;;;;;;;27.87;14.27;;;3.30;34.10;;;;;;5111811;28;20982;-71
2022/04/04 07:16:51;;;;;;;28.37;13.73;;;3.30;33.80;;;;;;5094180;28;20208;-71
2022/04/04 07:19:17;;;;;;;29.15;15.07;;;3.00;34.80;;;;;;5097958;28;20174;-70
2022/04/04 07:21:43;;;;;;;32.80;14.90;;;2.80;35.20;;;;;;5110864;28;20193;-71
2022/04/04 07:24:09;;;;;;;29.45;14.80;;;3.10;34.80;;;;;;5090428;28;20197;-74
2022/04/04 07:26:35;;;;;;;29.70;15.03;;;3.40;34.10;;;;;;5098667;28;20201;-73
2022/04/04 07:29:01;;;;;;;25.03;13.70;;;3.30;33.60;;;;;;5100350;28;20201;-73
2022/04/04 07:31:26;;;;;;;38.10;15.03;;;2.80;35.50;;;;;;5106097;28;20469;-74
2022/04/04 07:33:52;;;;;;;30.10;14.73;;;3.10;36.00;;;;;;5091291;28;20181;-74
2022/04/04 07:36:18;;;;;;;28.33;16.00;;;3.50;34.20;;;;;;5103508;28;20194;-72
2022/04/04 07:38:44;;;;;;;30.40;14.77;;;3.70;33.90;;;;;;5099379;28;20672;-72
2022/04/04 07:41:09;;;;;;;34.07;16.23;;;4.00;33.10;;;;;;5106007;28;20213;-72
2022/04/04 07:43:35;;;;;;;29.93;14.97;;;4.20;32.60;;;;;;5096720;28;20460;-73
2022/04/04 07:46:01;;;;;;;29.33;16.00;;;3.90;32.80;;;;;;5099316;28;20580;-73
2022/04/04 07:48:27;;;;;;;28.27;14.80;;;4.50;31.10;;;;;;5109815;28;20873;-73
2022/04/04 07:50:53;;;;;;;27.38;15.70;;;4.50;31.50;;;;;;5106691;28;20642;-73
2022/04/04 07:53:19;;;;;;;30.17;16.10;;;4.90;31.00;;;;;;5108364;28;20264;-73
2022/04/04 07:55:45;;;;;;;27.60;16.40;;;5.10;30.80;;;;;;5104426;28;20443;-73
2022/04/04 07:58:11;;;;;;;27.88;16.20;;;5.20;30.70;;;;;;5102052;28;20416;-73
2022/04/04 08:00:37;;;;;;;28.83;15.67;;;5.30;31.40;;;;;;5106980;28;20240;-73
2022/04/04 08:03:04;;;;;;;29.87;16.03;;;5.70;29.80;;;;;;5105505;28;20229;-73
2022/04/04 08:05:30;;;;;;;28.77;15.07;;;6.00;30.00;;;;;;5084040;28;20420;-73
2022/04/04 08:07:56;;;;;;;28.50;15.30;;;5.90;29.90;;;;;;5102274;28;20183;-73
2022/04/04 08:10:22;;;;;;;24.58;13.90;;;6.00;29.50;;;;;;5110866;28;20181;-73
2022/04/04 08:12:51;;;;;;;23.97;14.40;;;5.90;29.30;;;;;;5098550;28;20178;-73
2022/04/04 08:15:16;;;;;;;23.63;13.23;;;5.20;30.20;;;;;;5090844;28;20175;-74
2022/04/04 08:17:42;;;;;;;23.30;14.00;;;5.60;29.70;;;;;;5107289;28;20217;-74
2022/04/04 08:20:08;;;;;;;19.00;10.30;;;6.00;29.00;;;;;;5108716;28;20182;-73
2022/04/04 08:22:42;;;;;;;20.90;13.20;;;5.20;29.00;;;;;;5105299;28;20198;-74
2022/04/04 08:25:09;;;;;;;18.80;12.05;;;5.00;29.40;;;;;;5108452;28;20169;-74
2022/04/04 08:27:35;;;;;;;21.55;12.90;;;5.40;29.60;;;;;;5110742;28;20178;-74
2022/04/04 08:30:06;;;;;;;20.02;11.80;;;5.90;29.00;;;;;;5105900;28;20771;-75
2022/04/04 08:32:33;;;;;;;25.20;11.77;;;5.70;28.40;;;;;;5113688;28;20166;-73
2022/04/04 08:34:59;;;;;;;20.73;12.60;;;4.90;30.10;;;;;;5105417;28;20703;-73
2022/04/04 08:37:25;;;;;;;20.27;12.00;;;5.20;29.40;;;;;;5113559;28;20201;-75
2022/04/04 08:39:50;;;;;;;18.80;12.00;;;5.10;29.30;;;;;;5105233;28;20181;-74
2022/04/04 08:42:20;;;;;;;17.07;10.90;;;5.30;29.60;;;;;;5105021;28;20279;-72
2022/04/04 08:44:49;;;;;;;17.08;11.40;;;5.70;29.30;;;;;;5105746;28;20178;-73
2022/04/04 08:47:18;;;;;;;14.18;8.77;;;5.60;28.20;;;;;;5097002;28;20228;-72
2022/04/04 08:49:44;;;;;;;18.88;10.50;;;5.60;26.70;;;;;;5107459;28;20216;-72
2022/04/04 08:52:09;;;;;;;15.77;9.33;;;5.20;27.50;;;;;;5101548;28;20182;-72
2022/04/04 08:54:35;;;;;;;20.43;9.57;;;4.80;28.50;;;;;;5094949;28;20496;-73
2022/04/04 08:57:01;;;;;;;17.77;10.30;;;4.60;29.30;;;;;;5091184;28;20297;-73
2022/04/04 08:59:26;;;;;;;21.97;10.50;;;5.50;28.30;;;;;;5110683;28;20174;-72
2022/04/04 09:01:53;;;;;;;15.90;9.97;;;5.70;25.30;;;;;;5088945;28;20211;-72
2022/04/04 09:04:19;;;;;;;17.30;10.07;;;5.90;26.80;;;;;;5113208;28;20547;-72
2022/04/04 09:06:51;;;;;;;18.30;10.05;;;6.20;26.10;;;;;;5104791;28;20197;-72
2022/04/04 09:09:36;;;;;;;18.65;10.63;;;5.40;27.50;;;;;;5112539;28;20174;-75
2022/04/04 09:12:06;;;;;;;18.10;8.70;;;5.70;26.70;;;;;;5112945;28;20178;-73
2022/04/04 09:14:37;;;;;;;18.73;10.25;;;4.90;27.00;;;;;;5104699;28;20178;-74
2022/04/04 09:17:05;;;;;;;15.45;9.90;;;5.20;26.80;;;;;;5104898;28;20288;-74
2022/04/04 09:19:32;;;;;;;16.63;10.95;;;5.10;27.80;;;;;;5112327;28;20210;-74
2022/04/04 09:22:04;;;;;;;14.55;9.20;;;5.50;25.70;;;;;;5104578;28;20178;-74
2022/04/04 09:24:52;;;;;;;14.00;9.15;;;6.00;24.90;;;;;;5104810;28;20205;-73
2022/04/04 09:27:23;;;;;;;14.93;8.50;;;6.70;23.40;;;;;;5107812;28;20190;-73
2022/04/04 09:30:01;;;;;;;13.70;8.32;;;6.80;23.20;;;;;;5103396;28;20191;-73
2022/04/04 09:32:36;;;;;;;15.90;9.20;;;6.80;22.70;;;;;;5107736;28;20302;-73
2022/04/04 09:35:13;;;;;;;24.38;9.60;;;6.40;22.70;;;;;;5091039;28;20208;-73
2022/04/04 09:37:43;;;;;;;13.32;7.72;;;6.30;22.50;;;;;;5099197;28;20190;-73
2022/04/04 09:40:09;;;;;;;13.13;8.85;;;6.40;21.50;;;;;;5107783;28;20678;-73
2022/04/04 09:42:35;;;;;;;13.07;7.80;;;6.10;22.30;;;;;;5099705;28;20202;-72
2022/04/04 09:45:08;;;;;;;14.32;9.25;;;5.40;23.50;;;;;;5103401;28;20192;-72
2022/04/04 09:47:54;;;;;;;14.07;9.80;;;5.20;24.20;;;;;;5079467;28;20233;-74
2022/04/04 09:50:45;;;;;;;15.18;10.10;;;6.40;22.10;;;;;;5109032;28;20254;-73
2022/04/04 09:53:16;;;;;;;16.27;10.35;;;6.10;24.20;;;;;;5109379;28;20188;-73
2022/04/04 09:55:48;;;;;;;17.85;10.40;;;6.60;23.70;;;;;;5111861;28;20179;-73
2022/04/04 09:58:19;;;;;;;21.30;11.50;;;7.10;22.40;;;;;;5102875;28;20582;-73
2022/04/04 10:00:46;;;;;;;17.35;10.80;;;6.80;23.90;;;;;;5103786;28;20201;-73
2022/04/04 10:03:13;;;;;;;18.58;11.77;;;7.50;22.50;;;;;;5104829;28;20200;-74
2022/04/04 10:05:47;;;;;;;17.20;11.38;;;7.80;22.10;;;;;;5102585;28;20171;-73
2022/04/04 10:08:15;;;;;;;22.92;10.75;;;7.50;21.40;;;;;;5101936;28;20897;-73
2022/04/04 10:10:42;;;;;;;15.40;11.02;;;7.20;22.10;;;;;;5105992;28;20189;-73
2022/04/04 10:13:10;;;;;;;19.48;10.48;;;6.80;22.90;;;;;;5102727;28;20243;-73
2022/04/04 10:15:37;;;;;;;16.25;9.98;;;6.30;23.60;;;;;;5087189;28;20640;-74
2022/04/04 10:18:03;;;;;;;16.38;10.55;;;7.00;23.50;;;;;;5089569;28;20662;-74
2022/04/04 10:20:29;;;;;;;16.95;11.02;;;7.10;22.50;;;;;;5103364;28;20186;-74
2022/04/04 10:22:55;;;;;;;17.00;10.10;;;7.40;22.80;;;;;;5111260;28;20202;-73
2022/04/04 10:25:25;;;;;;;16.92;10.43;;;7.90;21.50;;;;;;5108152;28;20525;-72
2022/04/04 10:27:52;;;;;;;14.75;10.10;;;7.80;21.20;;;;;;5086934;28;20179;-73
2022/04/04 10:30:29;;;;;;;15.50;10.43;;;7.70;21.30;;;;;;5108390;28;20175;-73
2022/04/04 10:32:55;;;;;;;18.00;11.18;;;7.90;21.20;;;;;;5101028;28;20256;-73
2022/04/04 10:35:26;;;;;;;21.60;10.33;;;8.20;20.70;;;;;;5107960;28;20702;-73
2022/04/04 10:37:56;;;;;;;13.95;10.07;;;8.60;21.20;;;;;;5112075;28;20252;-73
2022/04/04 10:40:26;;;;;;;24.92;11.95;;;9.20;19.40;;;;;;5104560;28;20181;-73
2022/04/04 10:43:08;;;;;;;17.85;11.38;;;9.00;20.40;;;;;;5110147;28;20728;-74
2022/04/04 10:45:52;;;;;;;17.20;11.07;;;9.50;19.80;;;;;;5096872;28;20293;-73
2022/04/04 10:48:19;;;;;;;15.98;11.18;;;8.00;21.30;;;;;;5101355;28;20185;-72
2022/04/04 10:50:46;;;;;;;17.40;11.55;;;7.80;21.10;;;;;;5100610;28;20170;-73
2022/04/04 10:53:11;;;;;;;17.95;11.80;;;8.00;20.80;;;;;;5107318;28;20188;-73
2022/04/04 10:55:37;;;;;;;19.40;12.03;;;8.60;22.70;;;;;;5093547;28;20800;-73
2022/04/04 10:58:13;;;;;;;18.30;12.40;;;8.20;21.70;;;;;;5104062;28;20202;-73
2022/04/04 11:01:06;;;;;;;16.95;12.25;;;8.20;22.50;;;;;;5110922;28;20176;-73
2022/04/04 11:03:34;;;;;;;17.95;11.40;;;9.00;21.60;;;;;;5102478;28;20263;-73
2022/04/04 11:09:18;;;;;;;17.23;10.67;;;9.60;21.30;;;;;;5110920;28;20415;-74
2022/04/04 11:12:00;;;;;;;16.70;11.03;;;10.30;19.00;;;;;;5109357;28;20555;-73
2022/04/04 11:14:28;;;;;;;18.40;11.50;;;10.20;19.10;;;;;;5085616;28;21008;-73
2022/04/04 11:17:06;;;;;;;17.03;10.73;;;10.40;18.60;;;;;;5096555;28;20436;-75
2022/04/04 11:19:47;;;;;;;19.30;11.80;;;11.50;17.00;;;;;;5103353;28;20490;-73
2022/04/04 11:22:23;;;;;;;18.13;10.57;;;11.80;17.80;;;;;;5101823;28;20460;-73
2022/04/04 11:25:04;;;;;;;13.57;9.97;;;11.50;17.20;;;;;;5100110;28;20832;-74
2022/04/04 11:27:35;;;;;;;12.40;9.90;;;12.90;19.40;;;;;;5106907;28;20963;-72
2022/04/04 11:30:13;;;;;;;15.17;9.63;;;12.00;16.90;;;;;;5096206;28;20902;-73
2022/04/04 11:32:40;;;;;;;12.53;8.70;;;11.30;16.30;;;;;;5109256;28;20473;-72
2022/04/04 11:35:22;;;;;;;13.90;9.10;;;10.20;18.40;;;;;;5107610;28;20430;-73
2022/04/04 11:37:54;;;;;;;13.07;9.33;;;11.50;17.80;;;;;;5104476;28;20444;-73
2022/04/04 11:40:29;;;;;;;16.63;10.30;;;12.20;17.10;;;;;;5100228;28;20413;-73
2022/04/04 11:42:56;;;;;;;15.37;9.80;;;13.90;17.00;;;;;;5097866;28;20456;-74
2022/04/04 11:45:28;;;;;;;12.33;9.80;;;14.50;15.20;;;;;;5094416;28;20427;-73
2022/04/04 11:47:53;;;;;;;12.37;9.40;;;15.80;14.50;;;;;;5102510;28;20424;-73
2022/04/04 11:50:23;;;;;;;11.10;9.00;;;14.80;13.80;;;;;;5099282;28;20764;-74
2022/04/04 11:52:52;;;;;;;12.00;9.00;;;14.20;13.90;;;;;;5105608;28;20171;-74
2022/04/04 11:55:19;;;;;;;12.67;9.70;;;12.60;15.50;;;;;;5114125;28;20433;-74
2022/04/04 11:57:49;;;;;;;13.03;9.67;;;13.40;14.50;;;;;;5111517;28;20450;-73
2022/04/04 12:00:20;;;;;;;12.40;9.27;;;15.30;14.20;;;;;;5103438;28;20420;-73
2022/04/04 12:02:47;;;;;;;13.60;9.67;;;14.80;13.10;;;;;;5104417;28;20531;-73
2022/04/04 12:05:14;;;;;;;10.10;7.97;;;14.80;13.10;;;;;;5094573;28;20420;-74
2022/04/04 12:07:41;;;;;;;12.93;9.00;;;13.30;14.60;;;;;;5107467;28;20441;-74
2022/04/04 12:10:08;;;;;;;11.83;8.70;;;14.30;13.40;;;;;;5109666;28;20427;-73
2022/04/04 12:12:33;;;;;;;10.10;8.00;;;13.80;14.00;;;;;;5110122;28;20419;-74
2022/04/04 12:14:59;;;;;;;13.03;9.10;;;13.90;15.20;;;;;;5113655;28;20965;-74
2022/04/04 12:17:25;;;;;;;12.40;9.33;;;15.00;15.10;;;;;;5113493;28;20209;-74
2022/04/04 12:19:52;;;;;;;12.63;8.77;;;16.40;14.20;;;;;;5110364;28;20181;-73
2022/04/04 12:25:06;;;;;;;11.10;8.40;;;16.00;13.60;;;;;;5113440;28;20454;-72
2022/04/04 12:27:32;;;;;;;11.27;8.60;;;14.50;14.30;;;;;;5114064;28;20435;-73
2022/04/04 12:30:04;;;;;;;10.83;8.60;;;13.20;16.10;;;;;;5109654;28;20420;-73
2022/04/04 12:32:36;;;;;;;11.03;7.80;;;12.40;16.50;;;;;;5110605;28;20420;-73
2022/04/04 12:35:07;;;;;;;8.70;8.03;;;12.80;15.80;;;;;;5096947;28;20434;-73
2022/04/04 12:37:43;;;;;;;10.60;7.93;;;14.10;14.40;;;;;;5113166;28;20517;-72
2022/04/04 12:40:25;;;;;;;12.57;8.20;;;13.60;13.00;;;;;;5112808;28;20427;-73
2022/04/04 12:42:54;;;;;;;10.40;8.33;;;13.20;13.40;;;;;;5105057;28;20512;-74
2022/04/04 12:45:20;;;;;;;9.53;8.00;;;12.90;14.30;;;;;;5098388;28;21027;-74
2022/04/04 12:48:09;;;;;;;10.90;7.83;;;13.10;14.90;;;;;;5101821;28;20436;-72
2022/04/04 12:50:49;;;;;;;11.27;9.30;;;12.10;15.80;;;;;;5078355;28;20788;-73